Date,TemperatureHighF,TemperatureAvgF,TemperatureLowF,DewpointHighF,DewpointAvgF,DewpointLowF,HumidityHigh,HumidityAvg,HumidityLow,PressureMaxIn,PressureMinIn,WindSpeedMaxMPH,WindSpeedAvgMPH,GustSpeedMaxMPH,PrecipitationSumIn
2013-5-1,57.0,38.0,24.3,22.5,17.5,10.9,74,48,18,30.21,29.78,20,6,20,0.00
2013-5-2,63.3,41.6,24.1,28.1,19.5,13.4,73,45,18,30.28,30.07,11,3,11,0.00
2013-5-3,63.1,43.2,24.3,30.1,21.0,12.3,82,47,16,30.08,29.85,11,4,11,0.00
2013-5-4,62.1,45.5,27.7,31.8,23.6,15.9,83,47,18,29.95,29.87,16,5,16,0.00
2013-5-5,71.6,50.2,32.5,33.5,25.5,16.8,75,44,14,29.90,29.74,14,3,14,0.00
2013-5-6,80.8,60.8,36.1,35.7,27.8,17.6,71,32,12,29.76,29.62,11,2,11,0.00
2013-5-7,86.7,63.4,41.4,43.3,36.5,27.1,80,43,14,29.64,29.48,8,2,8,0.00
2013-5-8,71.1,57.3,46.0,44.3,41.2,32.8,78,56,34,29.81,29.54,18,8,18,0.00
2013-5-9,68.9,53.7,34.9,32.8,24.1,17.1,65,37,14,29.89,29.78,17,8,17,0.00
2013-5-10,74.1,64.5,48.2,38.6,23.5,16.3,34,21,17,29.87,29.63,32,11,32,0.04
2013-5-11,62.8,49.9,36.5,27.4,19.0,8.4,66,31,16,30.03,29.85,15,8,15,0.04
2013-5-12,79.7,54.9,29.3,26.2,19.5,11.8,59,29,11,29.86,29.52,10,3,10,0.00
2013-5-13,94.1,75.1,57.7,46.5,36.2,23.8,41,26,12,29.52,29.28,26,6,26,0.00
2013-5-14,78.1,69.3,58.8,57.1,42.6,29.9,84,41,21,29.49,29.15,32,8,32,0.02
2013-5-15,83.8,68.5,53.4,43.0,35.0,23.6,60,34,12,29.55,29.48,18,5,18,0.00
2013-5-18,76.5,62.8,57.2,60.5,58.3,54.7,99,87,47,29.46,29.38,14,5,14,1.51
2013-5-19,60.4,54.7,51.4,59.5,53.8,51.2,99,97,93,29.40,29.17,23,12,23,0.98
2013-5-20,57.2,52.4,47.5,56.9,51.0,46.7,99,95,87,29.36,29.20,26,14,26,0.27
2013-5-21,49.5,46.0,43.3,48.0,44.4,41.6,99,94,87,31.65,29.36,24,12,25,0.02
2013-5-22,71.4,58.2,46.6,47.8,38.8,21.6,90,55,17,29.78,29.58,22,9,22,0.00
2013-5-23,74.1,60.2,47.5,48.3,43.9,35.5,88,58,26,29.89,29.75,16,8,16,0.00
2013-5-24,68.0,56.8,50.7,53.8,45.5,35.0,83,66,52,29.78,29.59,100,7,100,0.00
2013-5-25,73.9,59.5,48.6,61.1,54.8,48.2,99,86,58,29.71,29.58,24,6,24,0.37
2013-5-26,79.9,61.7,52.0,61.6,55.7,51.4,99,82,51,29.65,29.45,25,6,25,0.06
2013-5-27,61.5,56.2,51.6,58.2,54.4,51.3,99,94,81,29.60,29.32,12,4,12,0.24
2013-5-28,84.7,65.7,52.3,56.4,53.5,50.1,99,69,33,29.35,29.28,14,2,14,0.00
2013-5-29,81.7,66.1,55.9,59.3,55.0,48.6,89,69,39,29.33,29.19,14,5,14,0.00
2013-5-30,82.4,64.1,58.1,64.3,59.5,56.9,99,87,45,29.21,28.97,20,9,20,1.72
2013-5-31,64.8,56.9,49.3,59.9,54.3,47.1,96,91,83,29.45,28.98,23,11,23,0.07